Time;durP1;ratioP1;P1;durP2;ratioP2;P2;SDS_P1;SDS_P2;PMS_P1;PMS_P2;Temp;Humidity;BMP_temperature;BMP_pressure;BME280_temperature;BME280_humidity;BME280_pressure;Samples;Min_cycle;Max_cycle;Signal;HPM_P1;HPM_P2
2023/12/30 00:02:06;;;;;;;4.20;2.95;;;12.60;66.60;;;8.04;100.00;95614.91;4977540;28;20061;-59
2023/12/30 00:04:31;;;;;;;3.50;2.90;;;12.60;66.40;;;8.02;100.00;95610.91;4976350;28;20022;-56
2023/12/30 00:06:57;;;;;;;4.57;3.17;;;12.50;66.40;;;7.95;100.00;95610.28;4972132;28;20441;-58
2023/12/30 00:09:23;;;;;;;4.85;3.17;;;12.60;66.40;;;7.94;100.00;95612.13;4976418;28;20022;-57
2023/12/30 00:11:49;;;;;;;4.85;3.28;;;12.60;66.40;;;7.94;100.00;95608.69;4982431;28;20018;-59
2023/12/30 00:14:15;;;;;;;5.35;3.60;;;12.50;66.40;;;7.91;100.00;95609.19;4982488;28;20041;-57
2023/12/30 00:16:41;;;;;;;5.43;3.92;;;12.50;66.50;;;7.86;100.00;95608.06;4990201;28;20400;-59
2023/12/30 00:19:08;;;;;;;6.95;4.25;;;12.50;66.50;;;7.87;100.00;95604.38;4973152;28;20052;-56
2023/12/30 00:21:34;;;;;;;5.60;4.10;;;12.40;66.50;;;7.79;100.00;95606.66;4972488;28;20034;-58
2023/12/30 00:24:02;;;;;;;5.38;4.60;;;12.40;66.60;;;7.80;100.00;95597.63;4976607;28;20389;-59
2023/12/30 00:26:28;;;;;;;7.22;5.43;;;12.40;66.70;;;7.76;100.00;95607.94;5005867;28;20105;-59
2023/12/30 00:28:54;;;;;;;7.97;4.82;;;12.30;66.70;;;7.75;100.00;95614.28;4990124;28;20030;-56
2023/12/30 00:31:26;;;;;;;6.40;4.88;;;12.30;66.80;;;7.78;100.00;95619.09;4990715;28;20189;-57
2023/12/30 00:33:59;;;;;;;7.07;5.40;;;12.30;66.90;;;7.72;100.00;95613.97;4990822;28;20392;-59
2023/12/30 00:36:26;;;;;;;7.43;5.35;;;12.30;67.00;;;7.71;100.00;95613.19;4982055;28;20416;-57
2023/12/30 00:38:55;;;;;;;8.73;6.07;;;12.30;67.00;;;7.69;100.00;95619.78;4982040;28;20018;-59
2023/12/30 00:41:22;;;;;;;7.80;5.75;;;12.30;67.10;;;7.64;100.00;95629.25;4972051;28;20037;-57
2023/12/30 00:43:49;;;;;;;7.68;5.93;;;12.30;67.10;;;7.67;100.00;95619.22;4975613;28;20018;-59
2023/12/30 00:46:19;;;;;;;9.52;6.22;;;12.20;67.10;;;7.67;100.00;95614.72;4971794;28;20057;-55
2023/12/30 00:48:46;;;;;;;8.40;6.03;;;12.30;67.20;;;7.70;100.00;95627.47;4971874;28;20026;-58
2023/12/30 00:51:12;;;;;;;8.13;6.13;;;12.20;67.10;;;7.67;100.00;95622.66;4989131;28;20052;-59
2023/12/30 00:53:38;;;;;;;8.38;6.03;;;12.20;67.10;;;7.62;100.00;95622.59;4971870;28;20018;-57
2023/12/30 00:56:04;;;;;;;7.90;6.18;;;12.20;67.20;;;7.56;100.00;95624.38;4980288;28;20565;-56
2023/12/30 00:58:29;;;;;;;10.52;6.65;;;12.10;67.10;;;7.56;100.00;95629.69;4989961;28;20064;-58
2023/12/30 01:00:55;;;;;;;9.05;6.78;;;12.10;67.20;;;7.55;100.00;95628.09;4972511;28;20114;-59
2023/12/30 01:03:21;;;;;;;9.80;6.55;;;12.10;67.20;;;7.57;100.00;95641.88;4989579;28;20030;-58
2023/12/30 01:05:47;;;;;;;8.40;6.18;;;12.10;67.30;;;7.54;100.00;95638.91;4991023;28;20427;-56
2023/12/30 01:08:13;;;;;;;9.63;6.47;;;12.10;67.40;;;7.54;100.00;95638.91;4990171;28;20063;-57
2023/12/30 01:10:39;;;;;;;9.73;6.93;;;12.00;67.30;;;7.51;100.00;95634.91;4991563;28;20022;-58
2023/12/30 01:13:06;;;;;;;9.05;7.10;;;12.00;67.40;;;7.50;100.00;95635.97;4989765;28;20028;-52
2023/12/30 01:15:33;;;;;;;9.80;6.60;;;12.00;67.30;;;7.44;100.00;95631.63;4975356;28;20033;-58
2023/12/30 01:17:59;;;;;;;9.70;6.72;;;12.00;67.30;;;7.37;100.00;95631.81;4971006;28;20022;-56
2023/12/30 01:20:25;;;;;;;8.48;6.82;;;11.90;67.20;;;7.35;100.00;95639.19;4982692;28;20534;-57
2023/12/30 01:22:51;;;;;;;10.32;6.95;;;11.90;67.20;;;7.26;100.00;95642.47;4990021;28;20034;-58
2023/12/30 01:25:17;;;;;;;9.93;7.13;;;11.80;67.20;;;7.20;100.00;95638.94;4984723;28;20054;-57
2023/12/30 01:27:42;;;;;;;11.57;7.50;;;11.80;67.30;;;7.13;100.00;95640.97;4990581;28;20026;-56
2023/12/30 01:30:09;;;;;;;9.07;6.75;;;11.70;67.30;;;7.06;100.00;95650.91;4990611;28;20112;-55
2023/12/30 01:32:36;;;;;;;11.55;7.50;;;11.60;67.30;;;6.95;100.00;95656.03;4989449;28;20029;-56
2023/12/30 01:35:03;;;;;;;9.68;7.45;;;11.50;67.30;;;6.87;100.00;95653.78;4990721;28;20033;-58
2023/12/30 01:37:29;;;;;;;10.07;7.70;;;11.50;67.50;;;6.83;100.00;95660.63;4974037;28;20026;-56
2023/12/30 01:39:55;;;;;;;10.82;7.20;;;11.40;67.60;;;6.78;100.00;95657.06;4989716;28;20018;-56
2023/12/30 01:42:21;;;;;;;9.50;7.38;;;11.40;67.80;;;6.76;100.00;95654.66;4990830;28;20365;-55
2023/12/30 01:44:47;;;;;;;10.57;7.75;;;11.30;67.80;;;6.73;100.00;95663.06;4976126;28;20057;-57
2023/12/30 01:47:13;;;;;;;11.18;7.75;;;11.30;67.80;;;6.65;100.00;95661.63;4991199;28;20021;-55
2023/12/30 01:49:39;;;;;;;11.43;7.70;;;11.20;67.90;;;6.60;100.00;95653.56;4987734;28;20060;-58
2023/12/30 01:52:07;;;;;;;10.38;6.90;;;11.20;67.90;;;6.55;100.00;95668.56;4975935;28;20068;-56
2023/12/30 01:54:34;;;;;;;11.93;7.78;;;11.10;68.00;;;6.48;100.00;95669.50;4990382;28;20065;-56
2023/12/30 01:57:02;;;;;;;10.20;7.20;;;11.00;68.00;;;6.41;100.00;95675.97;4991947;28;20025;-57
2023/12/30 01:59:30;;;;;;;9.98;7.20;;;11.00;68.00;;;6.24;100.00;95676.72;4994002;28;20030;-54
2023/12/30 02:01:57;;;;;;;10.18;7.05;;;10.90;67.80;;;6.05;100.00;95685.88;4992116;28;20060;-58
2023/12/30 02:04:24;;;;;;;11.27;7.70;;;10.80;67.60;;;5.79;100.00;95677.34;4994214;28;20017;-56
2023/12/30 02:06:50;;;;;;;10.43;7.53;;;10.70;67.50;;;5.59;100.00;95684.84;4994343;28;20022;-58
2023/12/30 02:09:16;;;;;;;10.50;7.75;;;10.60;67.50;;;5.54;100.00;95690.00;4977980;28;20022;-58
2023/12/30 02:11:43;;;;;;;13.18;8.80;;;10.50;67.60;;;5.49;100.00;95695.19;4974446;28;20076;-59
2023/12/30 02:14:27;;;;;;;12.63;8.88;;;10.40;67.70;;;5.46;100.00;95690.38;4983074;28;20083;-58
2023/12/30 02:16:54;;;;;;;11.60;8.65;;;10.30;67.90;;;5.44;100.00;95695.06;4974718;28;20393;-56
2023/12/30 02:19:20;;;;;;;14.85;8.52;;;10.20;67.90;;;5.34;100.00;95680.59;4988937;28;20025;-57
2023/12/30 02:21:46;;;;;;;15.85;9.30;;;10.10;68.00;;;5.30;100.00;95684.72;4974487;28;20034;-57
2023/12/30 02:24:12;;;;;;;18.52;10.45;;;10.00;68.20;;;5.24;100.00;95685.63;4978126;28;20049;-56
2023/12/30 02:26:39;;;;;;;14.32;9.48;;;10.00;68.40;;;5.21;100.00;95677.38;5007619;28;20025;-56
2023/12/30 02:29:07;;;;;;;13.85;9.68;;;9.90;68.60;;;5.22;100.00;95681.59;4993753;28;20013;-57
2023/12/30 02:31:35;;;;;;;17.17;10.65;;;9.90;69.60;;;5.28;100.00;95678.84;4993339;28;20461;-55
2023/12/30 02:34:00;;;;;;;17.48;10.95;;;9.80;69.10;;;5.34;100.00;95682.44;4992196;28;20115;-57
2023/12/30 02:36:26;;;;;;;15.68;10.30;;;9.90;69.60;;;5.39;100.00;95679.91;4984863;28;20025;-58
2023/12/30 02:38:52;;;;;;;16.90;10.68;;;9.90;69.80;;;5.42;100.00;95683.91;4977897;28;20026;-56
2023/12/30 02:41:18;;;;;;;16.70;9.82;;;9.90;70.00;;;5.44;100.00;95687.94;4973501;28;20056;-54
2023/12/30 02:44:00;;;;;;;15.55;9.82;;;9.90;70.00;;;5.45;100.00;95686.09;4989515;28;20383;-57
2023/12/30 02:46:26;;;;;;;15.35;9.82;;;9.90;70.20;;;5.46;100.00;95685.88;4992479;28;20091;-54
2023/12/30 02:48:52;;;;;;;14.27;9.20;;;10.00;70.20;;;5.47;100.00;95694.59;4992009;28;20029;-54
2023/12/30 02:51:19;;;;;;;18.38;9.77;;;10.00;70.20;;;5.47;100.00;95694.59;4978702;28;20104;-56
2023/12/30 02:53:46;;;;;;;15.88;9.88;;;10.00;70.30;;;5.50;100.00;95700.22;4972470;28;20026;-59
2023/12/30 02:56:26;;;;;;;13.48;8.95;;;10.00;70.40;;;5.52;100.00;95700.81;4983789;28;20022;-59
2023/12/30 02:58:59;;;;;;;14.23;8.48;;;10.00;70.50;;;5.50;100.00;95702.88;4972681;28;20026;-58
2023/12/30 03:01:29;;;;;;;14.15;9.02;;;10.00;70.40;;;5.50;100.00;95696.78;4988450;28;20045;-57
2023/12/30 03:03:59;;;;;;;12.40;8.23;;;10.00;70.50;;;5.50;100.00;95697.59;4992603;28;20080;-56
2023/12/30 03:06:26;;;;;;;12.68;8.70;;;10.00;70.60;;;5.51;100.00;95698.38;4982117;28;20026;-57
2023/12/30 03:08:53;;;;;;;11.75;8.18;;;10.00;70.60;;;5.52;100.00;95697.38;4992481;28;20384;-59
2023/12/30 03:11:20;;;;;;;13.30;8.75;;;10.00;70.60;;;5.53;100.00;95702.41;4991385;28;20041;-56
2023/12/30 03:13:46;;;;;;;13.55;8.57;;;10.00;70.60;;;5.55;100.00;95703.00;4986654;28;20061;-51
2023/12/30 03:16:16;;;;;;;11.50;8.13;;;10.00;70.60;;;5.53;100.00;95701.63;4973322;28;20038;-51
2023/12/30 03:18:43;;;;;;;11.45;8.13;;;10.00;70.40;;;5.49;100.00;95701.28;4973444;28;20023;-53
2023/12/30 03:21:16;;;;;;;13.00;8.00;;;10.00;70.40;;;5.44;100.00;95700.34;4972944;28;20080;-54
2023/12/30 03:23:42;;;;;;;13.43;8.80;;;10.00;70.50;;;5.48;100.00;95701.50;4987845;28;20032;-51
2023/12/30 03:26:09;;;;;;;11.27;7.60;;;10.00;70.50;;;5.49;100.00;95697.84;4980985;28;20488;-52
2023/12/30 03:28:36;;;;;;;11.77;7.97;;;10.00;70.60;;;5.53;100.00;95698.97;4985518;28;20025;-50
2023/12/30 03:31:03;;;;;;;15.35;8.95;;;10.00;70.50;;;5.52;100.00;95697.38;4991389;28;20025;-53
2023/12/30 03:33:29;;;;;;;12.77;7.35;;;10.00;70.50;;;5.53;100.00;95686.56;4992389;28;20025;-49
2023/12/30 03:35:55;;;;;;;11.25;7.63;;;10.00;70.50;;;5.51;100.00;95688.63;4986583;28;20096;-53
2023/12/30 03:38:21;;;;;;;10.40;7.28;;;10.00;70.30;;;5.50;100.00;95688.84;4977872;28;20116;-49
2023/12/30 03:40:47;;;;;;;11.95;8.02;;;10.00;71.10;;;5.47;100.00;95686.69;4981789;28;20022;-50
2023/12/30 03:43:14;;;;;;;10.80;7.10;;;10.00;70.30;;;5.46;100.00;95687.72;4981196;28;20026;-55
2023/12/30 03:45:40;;;;;;;13.52;7.32;;;10.00;70.40;;;5.38;100.00;95680.94;4976807;28;20030;-49
2023/12/30 03:48:07;;;;;;;10.55;7.60;;;10.00;70.20;;;5.26;100.00;95683.56;4981683;28;20026;-51
2023/12/30 03:50:33;;;;;;;9.63;6.68;;;9.90;69.90;;;5.09;100.00;95685.25;4985505;28;20053;-52
2023/12/30 03:52:59;;;;;;;10.13;6.35;;;9.90;69.60;;;4.77;100.00;95677.63;4987883;28;20097;-49
2023/12/30 03:55:25;;;;;;;11.80;7.30;;;9.70;69.20;;;4.63;100.00;95674.34;4979295;28;20014;-53
2023/12/30 03:57:52;;;;;;;11.40;7.60;;;9.70;69.00;;;4.48;100.00;95673.97;4980886;28;20032;-53
2023/12/30 04:00:18;;;;;;;13.32;7.70;;;9.60;68.90;;;4.40;100.00;95672.44;4976998;28;20029;-54
2023/12/30 04:02:46;;;;;;;13.48;7.72;;;9.40;68.90;;;4.30;100.00;95679.28;4982196;28;20389;-52
2023/12/30 04:05:13;;;;;;;12.07;7.75;;;9.30;69.00;;;4.26;100.00;95678.09;4990739;28;20516;-54
2023/12/30 04:07:39;;;;;;;14.05;8.07;;;9.20;69.00;;;4.14;100.00;95672.78;4978561;28;20042;-50
2023/12/30 04:10:07;;;;;;;13.93;7.65;;;9.10;69.80;;;4.09;100.00;95672.63;4987918;28;20029;-50
2023/12/30 04:12:35;;;;;;;12.57;7.68;;;9.00;69.10;;;3.96;100.00;95676.25;4985987;28;20025;-51
2023/12/30 04:15:01;;;;;;;13.90;7.90;;;8.90;69.10;;;3.80;100.00;95672.38;4989433;28;20042;-50
2023/12/30 04:17:27;;;;;;;14.18;8.25;;;8.80;69.10;;;3.74;100.00;95673.25;4983108;28;20034;-50
2023/12/30 04:19:53;;;;;;;14.48;8.65;;;8.70;69.10;;;3.67;100.00;95673.31;4982006;28;20071;-51
2023/12/30 04:22:19;;;;;;;14.60;8.18;;;8.70;69.10;;;3.61;100.00;95674.19;4975760;28;20546;-50
2023/12/30 04:24:44;;;;;;;10.43;7.72;;;8.60;69.20;;;3.58;100.00;95679.88;4981650;28;20018;-55
2023/12/30 04:27:10;;;;;;;12.52;7.72;;;8.50;69.30;;;3.47;100.00;95683.22;4987273;28;20026;-49
2023/12/30 04:29:36;;;;;;;18.58;8.75;;;8.50;69.40;;;3.43;100.00;95676.78;4987874;28;20030;-50
2023/12/30 04:32:02;;;;;;;16.35;8.65;;;8.40;69.50;;;3.39;100.00;95686.94;4978987;28;20540;-51
2023/12/30 04:34:28;;;;;;;13.23;8.27;;;8.30;69.50;;;3.38;100.00;95685.31;4990679;28;20037;-51
2023/12/30 04:36:54;;;;;;;15.32;8.85;;;8.30;69.70;;;3.39;100.00;95689.59;4988566;28;20037;-53
2023/12/30 04:39:20;;;;;;;14.25;8.38;;;8.20;69.80;;;3.40;100.00;95685.13;4980137;28;20049;-52
2023/12/30 04:41:46;;;;;;;15.52;8.48;;;8.20;69.90;;;3.38;100.00;95692.41;4990154;28;20457;-52
2023/12/30 04:44:13;;;;;;;12.43;7.90;;;8.20;70.00;;;3.35;100.00;95691.03;4983197;28;20045;-53
2023/12/30 04:46:39;;;;;;;14.02;7.93;;;8.10;70.00;;;3.29;100.00;95691.91;4982292;28;20080;-53
2023/12/30 04:49:05;;;;;;;12.77;7.72;;;8.10;70.00;;;3.17;100.00;95683.91;4979175;28;20032;-54
2023/12/30 04:51:31;;;;;;;15.27;7.53;;;8.10;69.90;;;3.09;100.00;95684.16;4988867;28;20029;-50
2023/12/30 04:53:56;;;;;;;13.25;7.82;;;8.00;69.90;;;3.07;100.00;95680.97;4971004;28;20121;-49
2023/12/30 04:56:22;;;;;;;12.27;7.22;;;8.00;69.90;;;2.98;100.00;95684.88;4980045;28;20536;-52
2023/12/30 04:58:48;;;;;;;12.27;7.45;;;7.90;69.80;;;2.94;100.00;95688.94;4989756;28;20104;-51
2023/12/30 05:01:14;;;;;;;14.43;7.90;;;7.90;69.90;;;2.92;100.00;95689.16;4988637;28;20041;-49
2023/12/30 05:03:43;;;;;;;17.33;7.57;;;7.90;70.00;;;2.95;100.00;95688.72;4970820;28;20049;-50
2023/12/30 05:06:21;;;;;;;15.60;7.88;;;7.80;70.10;;;2.93;100.00;95680.22;4970762;28;20052;-51
2023/12/30 05:08:52;;;;;;;18.10;8.60;;;7.80;70.20;;;2.92;100.00;95683.09;4985487;28;20017;-50
2023/12/30 05:11:19;;;;;;;15.73;8.70;;;7.70;70.30;;;2.91;100.00;95687.53;4989831;28;20029;-50
2023/12/30 05:13:46;;;;;;;16.30;8.02;;;7.70;70.30;;;2.92;100.00;95699.69;4975382;28;20128;-50
2023/12/30 05:16:12;;;;;;;15.73;8.73;;;7.70;70.40;;;2.84;100.00;95691.22;4969907;28;20054;-49
2023/12/30 05:18:38;;;;;;;19.27;8.15;;;7.70;70.50;;;2.89;100.00;95699.31;4970644;28;20030;-49
2023/12/30 05:21:04;;;;;;;13.45;7.95;;;7.70;70.50;;;2.87;100.00;95698.72;4985811;28;20132;-49
2023/12/30 05:23:33;;;;;;;16.75;7.97;;;7.60;70.50;;;2.79;100.00;95702.41;4990030;28;20021;-49
2023/12/30 05:25:59;;;;;;;14.85;6.88;;;7.60;70.50;;;2.73;100.00;95701.44;4972444;28;20034;-50
2023/12/30 05:28:24;;;;;;;13.75;7.90;;;7.60;70.40;;;2.68;100.00;95705.72;4970255;28;20018;-52
2023/12/30 05:30:50;;;;;;;12.93;7.07;;;7.50;70.40;;;2.58;100.00;95708.00;4970094;28;20030;-50
2023/12/30 05:33:16;;;;;;;14.23;7.78;;;7.50;70.40;;;2.55;100.00;95711.84;4987157;28;20113;-52
2023/12/30 05:35:42;;;;;;;13.50;6.93;;;7.40;70.50;;;2.59;100.00;95706.97;4970779;28;20022;-56
2023/12/30 05:38:12;;;;;;;13.07;7.45;;;7.40;70.60;;;2.56;100.00;95708.19;4975634;28;20488;-53
2023/12/30 05:40:39;;;;;;;15.00;6.88;;;7.40;70.70;;;2.50;100.00;95706.41;4986878;28;20448;-53
2023/12/30 05:43:06;;;;;;;11.32;7.10;;;7.40;70.70;;;2.41;100.00;95705.03;4990171;28;20030;-55
2023/12/30 05:45:32;;;;;;;11.63;6.60;;;7.30;70.50;;;2.32;100.00;95704.50;4979422;28;20026;-51
2023/12/30 05:47:58;;;;;;;12.25;7.00;;;7.30;70.50;;;2.29;100.00;95705.72;4987102;28;20029;-53
2023/12/30 05:50:24;;;;;;;13.57;6.75;;;7.30;70.60;;;2.24;100.00;95705.53;4977938;28;20092;-53
2023/12/30 05:52:50;;;;;;;13.70;6.80;;;7.20;70.70;;;2.25;100.00;95703.69;4970819;28;20056;-52
2023/12/30 05:55:15;;;;;;;11.18;6.47;;;7.20;70.70;;;2.21;100.00;95703.31;4971635;28;20022;-52
2023/12/30 05:57:41;;;;;;;11.93;6.50;;;7.20;70.70;;;2.20;100.00;95698.28;4989531;28;20025;-53
2023/12/30 06:00:09;;;;;;;11.23;6.10;;;7.20;70.70;;;2.12;100.00;95701.13;4989648;28;20022;-52
2023/12/30 06:02:34;;;;;;;11.23;6.68;;;7.10;70.60;;;2.10;100.00;95696.09;4981510;28;20124;-51
2023/12/30 06:05:00;;;;;;;12.75;6.57;;;7.10;70.60;;;2.03;100.00;95690.84;4968407;28;20465;-50
2023/12/30 06:07:26;;;;;;;15.52;6.28;;;7.00;70.60;;;2.02;100.00;95691.88;4972431;28;20033;-49
2023/12/30 06:09:52;;;;;;;8.65;5.63;;;7.00;70.60;;;1.99;100.00;95697.53;4989176;28;20021;-50
2023/12/30 06:12:17;;;;;;;12.88;5.88;;;6.90;70.60;;;1.93;100.00;95702.81;4975770;28;20068;-50
2023/12/30 06:14:43;;;;;;;11.30;6.70;;;6.90;70.60;;;1.87;100.00;95707.06;4976607;28;20046;-52
2023/12/30 06:17:09;;;;;;;10.70;6.28;;;6.80;70.60;;;1.87;100.00;95703.66;4969752;28;20550;-49
2023/12/30 06:19:35;;;;;;;10.43;5.95;;;6.80;70.60;;;1.83;100.00;95695.38;4973784;28;20444;-51
2023/12/30 06:22:01;;;;;;;11.40;5.47;;;6.80;70.60;;;1.75;100.00;95699.00;4977435;28;20485;-50
2023/12/30 06:24:26;;;;;;;10.70;5.88;;;6.70;70.60;;;1.71;100.00;95687.31;4977749;28;20062;-48
2023/12/30 06:26:53;;;;;;;12.15;6.40;;;6.70;70.70;;;1.72;100.00;95690.75;4985402;28;20048;-48
2023/12/30 06:29:19;;;;;;;9.13;5.70;;;6.60;70.70;;;1.68;100.00;95694.81;4992852;28;20435;-49
2023/12/30 06:31:45;;;;;;;10.18;5.60;;;6.60;70.80;;;1.62;100.00;95693.81;4984992;28;20054;-50
2023/12/30 06:34:11;;;;;;;12.18;5.45;;;6.60;70.80;;;1.47;100.00;95698.47;4987892;28;20394;-50
2023/12/30 06:36:38;;;;;;;12.57;6.28;;;6.50;70.60;;;1.48;100.00;95705.34;4973243;28;20109;-48
2023/12/30 06:39:05;;;;;;;12.80;6.85;;;6.50;70.70;;;1.55;100.00;95701.69;4988376;28;20113;-53
2023/12/30 06:41:31;;;;;;;12.85;5.63;;;6.50;70.80;;;1.53;100.00;95708.97;4992315;28;20401;-49
2023/12/30 06:43:56;;;;;;;13.32;5.15;;;6.40;70.90;;;1.45;100.00;95711.00;4984529;28;20026;-52
2023/12/30 06:46:22;;;;;;;11.45;5.20;;;6.40;70.80;;;1.39;100.00;95707.38;4984013;28;20026;-56
2023/12/30 06:48:48;;;;;;;10.00;5.80;;;6.40;70.70;;;1.44;100.00;95699.69;4972740;28;20109;-50
2023/12/30 06:51:15;;;;;;;19.25;5.53;;;6.30;70.70;;;1.41;100.00;95705.38;4988851;28;20017;-51
2023/12/30 06:53:41;;;;;;;10.30;4.90;;;6.30;70.70;;;1.34;100.00;95705.34;4972617;28;20052;-48
2023/12/30 06:56:08;;;;;;;9.70;5.70;;;6.30;70.70;;;1.28;100.00;95703.53;4976541;28;20022;-48
2023/12/30 06:58:35;;;;;;;10.95;6.18;;;6.20;70.70;;;1.24;100.00;95701.53;4972419;28;20026;-49
2023/12/30 07:01:01;;;;;;;11.70;5.70;;;6.20;70.80;;;1.24;100.00;95706.78;4972230;28;20370;-57
2023/12/30 07:03:26;;;;;;;9.82;6.05;;;6.20;70.90;;;1.25;100.00;95716.25;4990518;28;20026;-48
2023/12/30 07:05:52;;;;;;;10.48;5.80;;;6.10;70.90;;;1.26;100.00;95721.31;4974117;28;20044;-50
2023/12/30 07:08:18;;;;;;;9.45;5.32;;;6.10;71.00;;;1.22;100.00;95714.03;4981711;28;20076;-52
2023/12/30 07:10:44;;;;;;;10.95;5.53;;;6.10;71.10;;;1.16;100.00;95707.81;4990560;28;20034;-51
2023/12/30 07:13:11;;;;;;;12.13;6.00;;;6.10;71.00;;;1.10;100.00;95713.88;4991408;28;20017;-48
2023/12/30 07:15:37;;;;;;;13.77;6.35;;;6.10;71.10;;;1.10;100.00;95717.28;5007043;28;20018;-48
2023/12/30 07:18:04;;;;;;;9.15;5.50;;;6.00;71.00;;;1.14;100.00;95713.25;4991511;28;20063;-48
2023/12/30 07:20:35;;;;;;;9.98;5.95;;;6.00;71.10;;;1.14;100.00;95717.69;4986771;28;20484;-54
2023/12/30 07:23:02;;;;;;;12.57;5.10;;;6.00;71.20;;;1.10;100.00;95721.72;4972095;28;20030;-48
2023/12/30 07:25:28;;;;;;;8.90;5.40;;;6.00;71.20;;;1.11;100.00;95720.72;4984057;28;20022;-51
2023/12/30 07:27:54;;;;;;;11.05;5.05;;;6.00;71.20;;;1.15;100.00;95722.72;4991337;28;20112;-49
2023/12/30 07:30:19;;;;;;;11.75;5.57;;;6.00;71.20;;;1.12;100.00;95720.50;4986042;28;20559;-48
2023/12/30 07:32:45;;;;;;;8.98;5.47;;;6.00;71.30;;;1.17;100.00;95721.72;4990580;28;20116;-48
2023/12/30 07:35:11;;;;;;;9.77;5.60;;;6.00;71.30;;;1.23;100.00;95728.81;4991323;28;20117;-48
2023/12/30 07:37:37;;;;;;;10.15;5.25;;;6.10;71.50;;;1.17;100.00;95725.16;4986811;28;20026;-51
2023/12/30 07:40:06;;;;;;;11.70;5.20;;;6.10;71.40;;;1.10;100.00;95721.72;4984809;28;20041;-48
2023/12/30 07:42:32;;;;;;;8.13;5.20;;;6.10;71.30;;;1.17;100.00;95724.34;4976645;28;20124;-48
2023/12/30 07:44:58;;;;;;;10.40;5.22;;;6.10;71.30;;;1.20;100.00;95724.75;4986612;28;20026;-49
2023/12/30 07:47:28;;;;;;;8.57;5.35;;;6.10;71.40;;;1.23;100.00;95726.19;4973964;28;20083;-48
2023/12/30 07:49:54;;;;;;;11.50;5.15;;;6.20;71.50;;;1.26;100.00;95731.03;4970388;28;20026;-49
2023/12/30 07:52:20;;;;;;;9.13;4.93;;;6.20;71.50;;;1.28;100.00;95729.78;4981920;28;20370;-53
2023/12/30 07:54:46;;;;;;;7.32;4.43;;;6.30;71.50;;;1.30;100.00;95732.22;4986157;28;20057;-53
2023/12/30 07:57:13;;;;;;;7.03;4.40;;;6.30;71.40;;;1.25;100.00;95739.88;4972777;28;20034;-49
2023/12/30 07:59:40;;;;;;;9.45;5.00;;;6.20;71.30;;;1.25;100.00;95735.44;4971949;28;20121;-49
2023/12/30 08:02:06;;;;;;;7.40;4.80;;;6.30;71.30;;;1.27;100.00;95738.69;4987193;28;20029;-52
2023/12/30 08:04:32;;;;;;;10.73;5.00;;;6.30;71.30;;;1.38;100.00;95743.31;4977578;28;20052;-51
2023/12/30 08:06:58;;;;;;;9.98;5.05;;;6.30;71.30;;;1.47;100.00;95743.09;4971971;28;20061;-50
2023/12/30 08:09:23;;;;;;;9.27;5.10;;;6.40;71.50;;;1.51;100.00;95737.25;4973902;28;20149;-53
2023/12/30 08:11:50;;;;;;;10.63;5.20;;;6.40;71.50;;;1.57;100.00;95741.69;4971985;28;20128;-49
2023/12/30 08:14:17;;;;;;;9.45;4.97;;;6.40;71.60;;;1.65;100.00;95747.75;4988487;28;20463;-51
2023/12/30 08:16:44;;;;;;;9.95;5.50;;;6.50;71.70;;;1.76;100.00;95747.94;4990142;28;20441;-56
2023/12/30 08:19:10;;;;;;;7.93;4.93;;;6.50;71.80;;;1.81;100.00;95744.66;4988965;28;20044;-53
2023/12/30 08:21:35;;;;;;;16.90;4.85;;;6.60;71.80;;;1.85;100.00;95743.28;4989236;28;20056;-52
2023/12/30 08:24:02;;;;;;;10.90;4.95;;;6.70;71.80;;;1.88;100.00;95739.41;4988629;28;20026;-49
2023/12/30 08:26:28;;;;;;;10.02;5.75;;;6.70;71.80;;;1.92;100.00;95743.25;4980595;28;20034;-49
2023/12/30 08:28:55;;;;;;;8.02;4.70;;;6.80;71.80;;;1.94;100.00;95742.00;4970726;28;20172;-50
2023/12/30 08:31:22;;;;;;;14.48;5.13;;;6.80;71.70;;;1.97;100.00;95744.22;4972227;28;20030;-51
2023/12/30 08:33:50;;;;;;;9.10;5.25;;;6.90;71.80;;;2.03;100.00;95750.47;4989316;28;20497;-51
2023/12/30 08:36:15;;;;;;;14.65;5.57;;;6.90;71.70;;;2.07;100.00;95741.19;4990298;28;20025;-48
2023/12/30 08:38:42;;;;;;;15.88;8.25;;;7.00;71.70;;;2.24;100.00;95747.59;4985681;28;20021;-48
2023/12/30 08:41:10;;;;;;;12.32;7.38;;;7.10;72.00;;;2.46;100.00;95745.47;4983552;28;20026;-52
2023/12/30 08:43:36;;;;;;;10.82;6.68;;;7.20;72.20;;;2.63;100.00;95748.41;4981940;28;20029;-49
2023/12/30 08:46:02;;;;;;;10.88;7.07;;;7.30;72.40;;;2.71;100.00;95750.00;4984396;28;20413;-50
2023/12/30 08:48:28;;;;;;;9.70;6.30;;;7.40;72.40;;;2.75;100.00;95745.94;4986940;28;20108;-49
2023/12/30 08:50:54;;;;;;;9.65;6.18;;;7.50;72.30;;;2.85;100.00;95745.47;4979497;28;20157;-53
2023/12/30 08:53:24;;;;;;;10.23;6.57;;;7.60;72.30;;;2.93;100.00;95743.38;4971482;28;20018;-55
2023/12/30 08:55:55;;;;;;;12.65;7.00;;;7.70;72.40;;;3.04;100.00;95744.56;4969562;28;20022;-52
2023/12/30 08:58:24;;;;;;;9.00;5.70;;;7.80;72.40;;;3.12;100.00;95746.09;4969025;28;20033;-51
2023/12/30 09:00:52;;;;;;;11.73;6.97;;;7.90;72.40;;;3.22;100.00;95746.44;4970598;28;20556;-51
2023/12/30 09:03:18;;;;;;;15.93;7.38;;;8.00;72.40;;;3.32;100.00;95743.31;4986854;28;20169;-49
2023/12/30 09:05:44;;;;;;;15.02;7.32;;;8.20;72.40;;;3.41;100.00;95749.94;4989968;28;20633;-50
2023/12/30 09:08:10;;;;;;;12.43;7.20;;;8.30;72.40;;;3.51;100.00;95750.28;4978659;28;20026;-54
2023/12/30 09:10:38;;;;;;;11.13;6.78;;;8.40;72.40;;;3.61;100.00;95742.66;4971523;28;20153;-55
2023/12/30 09:13:04;;;;;;;10.75;6.63;;;8.50;72.40;;;3.66;100.00;95749.91;4970772;28;20049;-52
2023/12/30 09:15:30;;;;;;;10.45;6.00;;;8.60;72.30;;;3.83;100.00;95758.09;4971611;28;20022;-49
2023/12/30 09:17:58;;;;;;;9.68;6.72;;;8.70;72.40;;;3.94;100.00;95752.06;4986262;28;20030;-49
2023/12/30 09:20:24;;;;;;;9.00;6.30;;;8.90;72.50;;;4.07;100.00;95751.94;4986552;28;20089;-51
2023/12/30 09:22:52;;;;;;;9.35;5.32;;;9.10;72.70;;;4.27;100.00;95749.09;4979385;28;20065;-50
2023/12/30 09:25:18;;;;;;;8.80;5.85;;;9.40;72.90;;;4.51;100.00;95754.47;4984411;28;20054;-49
2023/12/30 09:27:46;;;;;;;6.72;4.60;;;9.70;73.00;;;4.76;100.00;95751.72;4978822;28;20036;-51
2023/12/30 09:30:12;;;;;;;5.43;4.15;;;10.00;73.10;;;5.01;100.00;95751.59;5000555;28;20025;-50
2023/12/30 09:32:38;;;;;;;4.45;3.58;;;10.40;73.30;;;5.23;100.00;95755.34;4977375;28;20472;-49
2023/12/30 09:35:06;;;;;;;6.13;4.22;;;10.60;73.00;;;5.40;100.00;95754.69;4994680;28;20052;-51
2023/12/30 09:37:32;;;;;;;4.60;3.42;;;10.80;72.70;;;5.56;100.00;95757.44;4977426;28;20019;-50
2023/12/30 09:39:59;;;;;;;5.25;3.85;;;11.10;72.60;;;5.77;100.00;95752.66;4976504;28;20018;-52
2023/12/30 09:42:27;;;;;;;4.75;3.30;;;11.30;72.30;;;5.89;100.00;95755.28;4974953;28;20046;-51
2023/12/30 09:44:55;;;;;;;3.30;3.00;;;11.50;71.90;;;6.02;100.00;95752.44;4995761;28;20022;-50
2023/12/30 09:47:22;;;;;;;4.20;2.85;;;11.70;71.60;;;6.21;100.00;95750.47;4978344;28;20393;-52
2023/12/30 09:49:48;;;;;;;3.63;3.03;;;12.00;72.10;;;6.38;100.00;95761.91;4983607;28;20088;-49
2023/12/30 09:52:15;;;;;;;3.75;2.83;;;12.20;71.00;;;6.62;100.00;95759.22;4983853;28;20026;-48
2023/12/30 09:54:41;;;;;;;5.10;2.30;;;12.50;70.50;;;6.83;100.00;95757.75;4979208;28;20514;-51
2023/12/30 09:57:07;;;;;;;3.10;2.20;;;12.80;70.20;;;7.05;100.00;95760.53;4975468;28;20026;-52
2023/12/30 09:59:40;;;;;;;2.17;1.98;;;13.10;69.60;;;7.39;100.00;95751.59;4975148;28;20041;-48
2023/12/30 10:02:10;;;;;;;3.25;2.17;;;13.50;68.90;;;7.77;100.00;95747.44;4979969;28;20030;-49
2023/12/30 10:04:37;;;;;;;2.78;2.17;;;13.90;68.00;;;8.16;100.00;95754.63;4981433;28;20113;-53
2023/12/30 10:07:03;;;;;;;2.55;1.90;;;14.30;67.60;;;8.45;96.81;95742.81;4977102;28;20465;-54
2023/12/30 10:09:32;;;;;;;2.47;1.80;;;14.70;66.60;;;8.83;97.26;95746.44;4982011;28;20041;-49
2023/12/30 10:11:58;;;;;;;2.60;1.85;;;15.00;65.60;;;9.13;94.10;95739.84;4993057;28;20035;-52
2023/12/30 10:14:24;;;;;;;2.67;1.92;;;15.30;65.00;;;9.36;89.82;95730.75;4987977;28;20057;-50
2023/12/30 10:16:50;;;;;;;2.47;1.90;;;15.60;64.20;;;9.56;89.02;95730.94;4973328;28;20396;-50